Connexion S'enregistrer

Connexion à votre compte

Identifiant
Mot de passe
Maintenir la connexion active sur ce site

Créer un compte

Pour valider ce formulaire, vous devez remplir tous les champs.
Nom
Identifiant
Mot de passe
Répétez le mot de passe
Adresse e-mail
Répétez l'adresse e-mail

Nous contacter

 Téléphone : +33 (0)4 79 54 41 81

Coordonnées détaillées et accès : cliquez ici

 
LFLB °C
    Ferienhaus Ostsee
[source: ADDS]
METAR
LFLB 182330Z AUTO 00000KT CAVOK 17/15 Q1020 NOSIG =
TAF LFLB 182300Z 1900/1924 VRB02KT CAVOK TEMPO 1909/1916 35008KT
TAF
TAF LFLB 182300Z 1900/1924 VRB02KT CAVOK TEMPO 1909/1916 35008KT =
SR / SS: 05:20 / 17:40 UTC (Lever/Coucher du soleil le 2018-09-19)
JSN Boot template designed by JoomlaShine.com